»·PEaware :: PH-TIM KSNA-KCMA

PH-TIM :: KSNA-KCMA

FLIGHT INFORMATION

Flight Status: Arrived
Operator: Privately registered:
Netherlands
More flights under this callsign
Pilot: Tim P. (6337)
Aircraft: CESSNA 172 SKYHAWK
(C172)
More flights by this aircraft type
Origin: KSNA John Wayne-Orange Co
United States
Destination: KCMA Camarillo
United States
More flights between these airports :: More routes between these airports
Route: SLI V23 POPPR SMO125 SMO VNY
File this flight plan on PilotEdge
Remarks: CSTP24
Altitude:
(Current/Filed)
4,000ft
Speed:
(Current/Filed)
105kts
Departed: 29-Jul-18 09:36 AM
Arrived: 29-Jul-18 10:25 AM
Distance/Time
Traveled:
68nm/0:48
Distance/Time
To Go:
Arrived

Flight Plot

Page will automatically refresh every two minutes.


Map Options




Map Legend


Flown Route
Filed Route
Departure Airport
Arrival Airport
Navaid (VOR, NDB)
Fix

Horizontal Profiles

Position Reports

Time Latitude Longitude Heading Altitude Ground
Speed
29-Jul-18 09:04 33.666053 -117.873330 38 60ft 0kts
29-Jul-18 09:05 33.666053 -117.873330 39 60ft 0kts
29-Jul-18 09:06 33.666053 -117.873330 38 60ft 0kts
29-Jul-18 09:07 33.666053 -117.873330 39 60ft 0kts
29-Jul-18 09:08 33.666053 -117.873330 38 60ft 0kts
29-Jul-18 09:09 33.666053 -117.873330 38 60ft 0kts
29-Jul-18 09:10 33.666053 -117.873330 38 60ft 0kts
29-Jul-18 09:11 33.666053 -117.873330 38 60ft 0kts
29-Jul-18 09:12 33.666053 -117.873330 38 60ft 0kts
29-Jul-18 09:13 33.666053 -117.873330 38 60ft 0kts
29-Jul-18 09:14 33.666053 -117.873330 38 60ft 0kts
29-Jul-18 09:15 33.666054 -117.873329 38 60ft 0kts
29-Jul-18 09:16 33.666054 -117.873329 38 60ft 0kts
29-Jul-18 09:17 33.666054 -117.873329 38 60ft 0kts
29-Jul-18 09:18 33.666054 -117.873329 38 60ft 0kts
29-Jul-18 09:19 33.666054 -117.873329 38 60ft 0kts
29-Jul-18 09:20 33.666054 -117.873329 38 60ft 0kts
29-Jul-18 09:21 33.666054 -117.873329 38 60ft 0kts
29-Jul-18 09:22 33.666054 -117.873329 38 60ft 0kts
29-Jul-18 09:23 33.666054 -117.873329 38 60ft 0kts
29-Jul-18 09:24 33.666055 -117.873328 38 60ft 0kts
29-Jul-18 09:25 33.666055 -117.873328 37 60ft 0kts
29-Jul-18 09:26 33.666055 -117.873328 37 60ft 0kts
29-Jul-18 09:27 33.666055 -117.873328 37 60ft 0kts
29-Jul-18 09:28 33.666055 -117.873328 37 60ft 0kts
29-Jul-18 09:29 33.666206 -117.873331 320 60ft 6kts
29-Jul-18 09:30 33.668593 -117.871451 41 60ft 14kts
29-Jul-18 09:31 33.671920 -117.868253 29 60ft 15kts
29-Jul-18 09:32 33.673469 -117.867762 53 60ft 0kts
29-Jul-18 09:33 33.673922 -117.867188 26 60ft 12kts
29-Jul-18 09:34 33.677803 -117.864715 27 60ft 15kts
29-Jul-18 09:35 33.680005 -117.863656 286 60ft 0kts
29-Jul-18 09:36 33.680059 -117.863894 290 60ft 8kts
29-Jul-18 09:37 33.667494 -117.872205 209 279ft 78kts
29-Jul-18 09:38 33.649059 -117.890630 221 793ft 92kts
29-Jul-18 09:39 33.629182 -117.911451 221 1302ft 96kts
29-Jul-18 09:40 33.608998 -117.932536 220 1800ft 95kts
29-Jul-18 09:41 33.587899 -117.954520 220 2000ft 107kts
29-Jul-18 09:42 33.564835 -117.978481 220 2011ft 112kts
29-Jul-18 09:43 33.542564 -118.001529 220 1984ft 99kts
29-Jul-18 09:44 33.538823 -118.027170 324 2315ft 93kts
29-Jul-18 09:45 33.560828 -118.041684 331 2807ft 88kts
29-Jul-18 09:46 33.581426 -118.058561 323 3210ft 90kts
29-Jul-18 09:47 33.601530 -118.076615 323 3608ft 90kts
29-Jul-18 09:48 33.621400 -118.094513 323 3998ft 90kts
29-Jul-18 09:49 33.644236 -118.115103 323 4029ft 105kts
29-Jul-18 09:50 33.666752 -118.135483 323 4016ft 100kts
29-Jul-18 09:51 33.688732 -118.155441 323 4010ft 98kts
29-Jul-18 09:52 33.710374 -118.175151 322 4008ft 97kts
29-Jul-18 09:53 33.732093 -118.194983 322 4019ft 102kts
29-Jul-18 09:54 33.755393 -118.216282 322 4032ft 107kts
29-Jul-18 09:55 33.778295 -118.237276 322 4037ft 110kts
29-Jul-18 09:56 33.802927 -118.259911 322 4044ft 113kts
29-Jul-18 09:57 33.826568 -118.281711 322 4028ft 106kts
29-Jul-18 09:58 33.849530 -118.302956 322 4021ft 103kts
29-Jul-18 09:59 33.872132 -118.323931 322 4020ft 102kts
29-Jul-18 10:00 33.895634 -118.343465 326 4020ft 103kts
29-Jul-18 10:01 33.918385 -118.364315 320 4019ft 102kts
29-Jul-18 10:02 33.940327 -118.386302 320 4019ft 102kts
29-Jul-18 10:03 33.962256 -118.408399 320 4018ft 102kts
29-Jul-18 10:04 33.984180 -118.430464 320 4018ft 102kts
29-Jul-18 10:05 34.006131 -118.452566 320 4018ft 102kts
29-Jul-18 10:06 34.024952 -118.478464 311 4016ft 102kts
29-Jul-18 10:07 34.043672 -118.504698 311 4020ft 104kts
29-Jul-18 10:08 34.062698 -118.531426 310 4023ft 105kts
29-Jul-18 10:09 34.081801 -118.558337 310 4023ft 106kts
29-Jul-18 10:10 34.100808 -118.585187 310 4023ft 106kts
29-Jul-18 10:11 34.120962 -118.611331 313 4023ft 106kts
29-Jul-18 10:12 34.141237 -118.637199 313 4027ft 106kts
29-Jul-18 10:13 34.160372 -118.661709 313 4026ft 105kts
29-Jul-18 10:14 34.177122 -118.694258 298 3692ft 126kts
29-Jul-18 10:15 34.192775 -118.730703 297 3406ft 113kts
29-Jul-18 10:16 34.206565 -118.762979 297 3400ft 110kts
29-Jul-18 10:17 34.212125 -118.801044 273 3403ft 120kts
29-Jul-18 10:18 34.212503 -118.841013 269 3410ft 119kts
29-Jul-18 10:19 34.212041 -118.880927 272 3382ft 114kts
29-Jul-18 10:20 34.212672 -118.921022 270 2831ft 121kts
29-Jul-18 10:21 34.212976 -118.961675 269 2103ft 120kts
29-Jul-18 10:22 34.213310 -119.001436 270 1514ft 115kts
29-Jul-18 10:23 34.213349 -119.036127 270 903ft 74kts
29-Jul-18 10:24 34.213468 -119.060832 271 474ft 74kts
29-Jul-18 10:25 34.213661 -119.082603 272 112ft 54kts
29-Jul-18 10:26 34.212865 -119.090860 200 81ft 0kts
29-Jul-18 10:27 34.211642 -119.090023 134 80ft 12kts
29-Jul-18 10:28 34.210951 -119.086508 91 81ft 14kts
29-Jul-18 10:29 34.210917 -119.081848 90 81ft 13kts
29-Jul-18 10:30 34.210217 -119.078542 82 81ft 6kts
29-Jul-18 10:31 34.210222 -119.078402 87 81ft 0kts
29-Jul-18 10:32 34.210222 -119.078402 87 81ft 0kts
29-Jul-18 10:33 34.210222 -119.078402 87 81ft 0kts
29-Jul-18 10:34 34.210222 -119.078402 87 81ft 0kts
29-Jul-18 10:35 34.210222 -119.078402 87 81ft 0kts
29-Jul-18 10:36 34.210222 -119.078402 87 81ft 0kts
29-Jul-18 10:37 34.210222 -119.078402 87 81ft 0kts
29-Jul-18 10:38 34.210222 -119.078402 87 81ft 0kts
29-Jul-18 10:39 34.210222 -119.078402 87 81ft 0kts
29-Jul-18 10:40 34.210222 -119.078402 87 81ft 0kts

Navigation Log

Ident Type
Flight plan parsing failed, navigation log unavailable